Time;durP1;ratioP1;P1;durP2;ratioP2;P2;SDS_P1;SDS_P2;PMS_P1;PMS_P2;Temp;Humidity;BMP_temperature;BMP_pressure;BME280_temperature;BME280_humidity;BME280_pressure;Samples;Min_cycle;Max_cycle;Signal;HPM_P1;HPM_P2
2022/03/21 00:00:40;;;;;;;10.63;7.63;;;7.20;57.80;;;;;;5060153;28;20198;-46
2022/03/21 00:03:12;;;;;;;9.50;7.70;;;7.10;57.70;;;;;;5059435;28;20208;-47
2022/03/21 00:05:39;;;;;;;9.70;8.00;;;7.10;57.70;;;;;;5064293;28;20245;-50
2022/03/21 00:08:06;;;;;;;9.57;7.17;;;7.10;58.00;;;;;;5046963;28;20213;-48
2022/03/21 00:10:34;;;;;;;12.10;8.07;;;7.00;58.20;;;;;;5061792;28;20234;-49
2022/03/21 00:13:01;;;;;;;9.30;7.30;;;7.00;58.10;;;;;;5059865;28;20246;-46
2022/03/21 00:15:29;;;;;;;11.13;7.70;;;7.00;58.50;;;;;;5051396;28;20230;-46
2022/03/21 00:17:56;;;;;;;10.10;8.00;;;7.00;74.30;;;;;;5061521;28;20671;-43
2022/03/21 00:20:25;;;;;;;11.00;7.87;;;7.00;76.30;;;;;;5055845;28;20234;-48
2022/03/21 00:22:53;;;;;;;8.30;7.40;;;7.00;78.50;;;;;;5064990;28;20202;-47
2022/03/21 00:25:20;;;;;;;11.27;7.10;;;6.90;58.70;;;;;;5051802;28;20226;-44
2022/03/21 00:27:47;;;;;;;10.10;7.63;;;6.90;58.60;;;;;;5060240;28;20317;-44
2022/03/21 00:30:17;;;;;;;10.40;7.57;;;6.80;58.70;;;;;;5059991;28;20195;-45
2022/03/21 00:32:44;;;;;;;14.43;8.40;;;6.80;58.50;;;;;;5059104;28;20237;-44
2022/03/21 00:35:14;;;;;;;10.13;7.37;;;6.80;58.60;;;;;;5056195;28;20222;-45
2022/03/21 00:37:44;;;;;;;13.00;7.40;;;6.80;58.70;;;;;;5059006;28;20198;-44
2022/03/21 00:40:12;;;;;;;10.30;6.90;;;6.70;79.60;;;;;;5047132;28;20218;-44
2022/03/21 00:42:40;;;;;;;8.60;7.50;;;6.70;79.20;;;;;;5058166;28;20284;-49
2022/03/21 00:45:10;;;;;;;10.43;7.63;;;6.70;77.60;;;;;;5061821;28;20223;-41
2022/03/21 00:47:38;;;;;;;9.33;7.70;;;6.70;76.30;;;;;;5058282;28;20187;-42
2022/03/21 00:50:05;;;;;;;10.20;7.27;;;6.60;75.00;;;;;;5057426;28;20199;-42
2022/03/21 00:52:35;;;;;;;8.97;7.40;;;;;;;;;;5057698;28;20221;-46
2022/03/21 00:55:04;;;;;;;10.57;7.53;;;6.80;67.60;;;;;;5062233;28;20214;-44
2022/03/21 00:57:31;;;;;;;10.97;7.90;;;6.50;59.10;;;;;;5048115;28;20620;-47
2022/03/21 00:59:58;;;;;;;9.13;6.87;;;6.50;59.70;;;;;;5062471;28;20698;-45
2022/03/21 01:02:25;;;;;;;9.60;7.33;;;6.50;60.00;;;;;;5063349;28;20195;-43
2022/03/21 01:04:52;;;;;;;9.00;7.17;;;6.40;59.70;;;;;;5065220;28;20224;-42
2022/03/21 01:07:19;;;;;;;11.97;8.53;;;6.40;59.90;;;;;;5058987;28;20946;-41
2022/03/21 01:09:45;;;;;;;9.47;7.80;;;6.40;60.10;;;;;;5064048;28;20182;-44
2022/03/21 01:12:14;;;;;;;9.07;7.37;;;6.30;64.70;;;;;;5051532;28;20247;-49
2022/03/21 01:14:41;;;;;;;9.77;7.67;;;6.40;61.40;;;;;;5062165;28;20238;-45
2022/03/21 01:17:08;;;;;;;10.40;8.07;;;6.30;60.20;;;;;;5065429;28;20229;-45
2022/03/21 01:19:35;;;;;;;12.77;7.87;;;6.30;60.30;;;;;;5061669;28;20191;-49
2022/03/21 01:22:02;;;;;;;9.37;7.60;;;6.30;60.50;;;;;;5063046;28;20203;-45
2022/03/21 01:24:29;;;;;;;11.20;7.97;;;6.20;60.80;;;;;;5061708;28;20218;-47
2022/03/21 01:26:55;;;;;;;9.70;7.77;;;6.20;60.90;;;;;;5047914;28;20199;-46
2022/03/21 01:29:23;;;;;;;9.97;6.93;;;6.20;61.20;;;;;;5061584;28;20651;-49
2022/03/21 01:31:50;;;;;;;11.57;8.77;;;6.20;61.30;;;;;;5064532;28;20210;-45
2022/03/21 01:34:17;;;;;;;9.50;7.57;;;6.10;61.30;;;;;;5064325;28;20211;-50
2022/03/21 01:36:44;;;;;;;13.07;8.40;;;6.10;61.40;;;;;;5062563;28;20202;-50
2022/03/21 01:39:11;;;;;;;11.67;8.23;;;6.10;61.50;;;;;;5060575;28;20203;-48
2022/03/21 01:41:39;;;;;;;12.73;8.23;;;6.10;61.70;;;;;;5061308;28;20191;-45
2022/03/21 01:44:07;;;;;;;9.77;7.33;;;6.10;61.70;;;;;;5051441;28;20223;-45
2022/03/21 01:46:37;;;;;;;13.47;8.37;;;6.10;61.80;;;;;;5059739;28;20222;-46
2022/03/21 01:49:06;;;;;;;10.50;8.20;;;6.00;61.80;;;;;;5064536;28;20264;-47
2022/03/21 01:51:36;;;;;;;9.57;7.50;;;6.00;61.90;;;;;;5065539;28;20300;-43
2022/03/21 01:57:04;;;;;;;11.93;8.17;;;5.90;62.50;;;;;;5005077;28;20566;-47
2022/03/21 01:59:32;;;;;;;11.90;8.37;;;5.90;62.60;;;;;;4989426;28;20209;-47
2022/03/21 02:02:00;;;;;;;10.97;8.00;;;5.80;62.90;;;;;;5033044;28;20625;-48
2022/03/21 02:04:27;;;;;;;12.27;7.33;;;5.80;62.80;;;;;;5061178;28;20297;-48
2022/03/21 02:06:54;;;;;;;12.47;8.20;;;5.80;62.90;;;;;;5063895;28;20191;-44
2022/03/21 02:09:21;;;;;;;10.07;8.13;;;5.80;63.00;;;;;;5060889;28;20205;-49
2022/03/21 02:11:48;;;;;;;13.70;8.00;;;5.80;63.20;;;;;;5060411;28;20206;-45
2022/03/21 02:14:15;;;;;;;10.10;8.07;;;5.80;63.10;;;;;;5059316;28;20583;-47
2022/03/21 02:16:42;;;;;;;9.00;7.23;;;5.80;63.20;;;;;;5053213;28;20945;-43
2022/03/21 02:19:25;;;;;;;9.50;7.33;;;5.70;63.40;;;;;;5064717;28;20713;-43
2022/03/21 02:22:08;;;;;;;11.50;7.63;;;5.70;63.50;;;;;;5064278;28;20191;-47
2022/03/21 02:24:41;;;;;;;11.33;7.90;;;5.70;63.60;;;;;;5059060;28;20221;-45
2022/03/21 02:27:12;;;;;;;12.17;7.77;;;5.70;63.70;;;;;;5058667;28;20678;-50
2022/03/21 02:30:02;;;;;;;11.70;7.83;;;5.70;63.70;;;;;;5040004;28;20217;-50
2022/03/21 02:32:29;;;;;;;12.20;7.73;;;5.60;64.00;;;;;;5062503;28;20235;-47
2022/03/21 02:34:57;;;;;;;9.57;7.53;;;5.60;64.20;;;;;;5060174;28;20866;-46
2022/03/21 02:37:26;;;;;;;8.97;7.47;;;5.60;64.20;;;;;;5062654;28;20651;-48
2022/03/21 02:39:55;;;;;;;10.30;7.27;;;5.50;64.40;;;;;;5060332;28;20248;-45
2022/03/21 02:42:23;;;;;;;12.60;7.60;;;5.50;64.30;;;;;;5059342;28;20206;-46
2022/03/21 02:44:50;;;;;;;13.67;8.13;;;5.50;64.60;;;;;;5049929;28;20776;-45
2022/03/21 02:47:17;;;;;;;8.90;7.60;;;5.40;64.50;;;;;;5061317;28;20280;-46
2022/03/21 02:49:44;;;;;;;10.20;7.30;;;5.40;64.80;;;;;;5062001;28;20217;-43
2022/03/21 02:52:13;;;;;;;8.73;7.30;;;5.40;64.80;;;;;;5064898;28;20221;-45
2022/03/21 02:54:40;;;;;;;12.03;8.40;;;5.40;65.10;;;;;;5062854;28;20223;-46
2022/03/21 02:57:07;;;;;;;10.47;7.87;;;5.40;65.10;;;;;;5055479;28;20198;-44
2022/03/21 02:59:35;;;;;;;10.57;7.80;;;5.30;65.30;;;;;;5064080;28;20644;-43
2022/03/21 03:02:02;;;;;;;12.03;7.87;;;5.30;65.50;;;;;;5046355;28;20341;-43
2022/03/21 03:04:29;;;;;;;9.83;7.57;;;5.30;65.60;;;;;;5063608;28;20246;-44
2022/03/21 03:06:56;;;;;;;11.40;7.13;;;5.30;65.60;;;;;;5058800;28;20194;-45
2022/03/21 03:09:23;;;;;;;9.83;7.40;;;5.20;65.70;;;;;;5063839;28;20194;-46
2022/03/21 03:11:50;;;;;;;8.93;7.93;;;5.20;65.80;;;;;;5060521;28;20313;-43
2022/03/21 03:14:18;;;;;;;12.20;8.03;;;5.20;65.90;;;;;;5058110;28;20800;-45
2022/03/21 03:16:46;;;;;;;11.47;7.93;;;5.20;66.20;;;;;;5052688;28;20202;-49
2022/03/21 03:19:13;;;;;;;12.00;7.23;;;5.20;66.30;;;;;;5057452;28;20202;-45
2022/03/21 03:21:44;;;;;;;10.33;7.63;;;5.10;66.30;;;;;;5062330;28;20199;-47
2022/03/21 03:24:12;;;;;;;14.17;7.47;;;5.10;66.40;;;;;;5060726;28;20237;-44
2022/03/21 03:26:39;;;;;;;13.13;8.10;;;5.10;66.60;;;;;;5061457;28;20687;-48
2022/03/21 03:29:06;;;;;;;12.53;8.30;;;5.10;66.80;;;;;;5056341;28;20517;-50
2022/03/21 03:31:35;;;;;;;14.03;7.90;;;5.10;67.00;;;;;;5063530;28;20268;-47
2022/03/21 03:34:05;;;;;;;12.27;7.80;;;5.00;67.30;;;;;;5044967;28;20249;-46
2022/03/21 03:36:32;;;;;;;10.50;7.60;;;5.00;67.60;;;;;;5060506;28;20558;-47
2022/03/21 03:39:00;;;;;;;12.20;7.83;;;5.00;67.70;;;;;;5052779;28;20195;-48
2022/03/21 03:41:27;;;;;;;9.80;7.90;;;4.90;67.60;;;;;;5056671;28;20655;-47
2022/03/21 03:43:54;;;;;;;10.63;7.40;;;4.90;67.80;;;;;;5048111;28;20223;-50
2022/03/21 03:46:21;;;;;;;10.50;7.43;;;4.90;68.00;;;;;;5062224;28;20199;-48
2022/03/21 03:48:48;;;;;;;10.27;7.50;;;4.90;68.20;;;;;;5045906;28;20203;-44
2022/03/21 03:51:17;;;;;;;11.37;8.00;;;4.80;68.40;;;;;;5062123;28;20245;-49
2022/03/21 03:53:44;;;;;;;12.03;7.50;;;4.80;68.70;;;;;;5053894;28;20218;-45
2022/03/21 03:56:11;;;;;;;11.27;8.23;;;4.80;68.80;;;;;;5054264;28;20889;-45
2022/03/21 03:58:39;;;;;;;12.33;8.13;;;4.80;68.80;;;;;;5062667;28;20205;-48
2022/03/21 04:01:06;;;;;;;10.93;7.67;;;4.80;68.80;;;;;;5054875;28;20923;-43
2022/03/21 04:03:45;;;;;;;12.40;7.33;;;4.80;68.90;;;;;;5042682;28;20199;-46
2022/03/21 04:06:13;;;;;;;9.93;7.63;;;4.80;69.10;;;;;;5055608;28;20289;-43
2022/03/21 04:08:41;;;;;;;11.57;8.10;;;4.70;69.10;;;;;;5061723;28;20197;-48
2022/03/21 04:11:08;;;;;;;11.20;7.07;;;4.70;69.20;;;;;;5059196;28;20821;-42
2022/03/21 04:13:35;;;;;;;11.73;7.63;;;4.70;69.30;;;;;;5062625;28;20226;-41
2022/03/21 04:16:02;;;;;;;10.33;7.57;;;4.70;69.50;;;;;;5053467;28;21029;-44
2022/03/21 04:18:29;;;;;;;9.67;7.60;;;4.60;69.60;;;;;;5062600;28;20604;-45
2022/03/21 04:20:57;;;;;;;9.97;7.57;;;4.60;69.70;;;;;;5047092;28;21214;-43
2022/03/21 04:23:24;;;;;;;13.13;8.37;;;4.60;69.90;;;;;;5062699;28;20190;-45
2022/03/21 04:25:53;;;;;;;9.60;7.37;;;4.60;70.00;;;;;;5058772;28;20711;-46
2022/03/21 04:28:20;;;;;;;10.57;8.13;;;4.60;70.00;;;;;;5062930;28;20281;-44
2022/03/21 04:30:48;;;;;;;10.73;7.80;;;4.60;70.00;;;;;;5059753;28;20289;-45
2022/03/21 04:33:15;;;;;;;12.47;8.17;;;4.60;70.00;;;;;;5055947;28;20233;-49
2022/03/21 04:35:43;;;;;;;12.27;7.90;;;4.60;70.00;;;;;;5048267;28;20216;-48
2022/03/21 04:38:14;;;;;;;11.73;7.73;;;4.60;70.10;;;;;;5059310;28;20900;-45
2022/03/21 04:40:44;;;;;;;11.67;7.93;;;4.50;70.40;;;;;;5064902;28;20195;-46
2022/03/21 04:43:14;;;;;;;10.33;7.83;;;4.50;70.30;;;;;;5064902;28;20938;-42
2022/03/21 04:45:42;;;;;;;12.73;8.33;;;4.50;70.40;;;;;;5057744;28;20659;-44
2022/03/21 04:48:10;;;;;;;10.57;7.37;;;4.50;70.80;;;;;;5056756;28;20239;-43
2022/03/21 04:50:37;;;;;;;13.60;8.13;;;4.50;70.90;;;;;;5055091;28;20573;-44
2022/03/21 04:53:04;;;;;;;8.50;7.73;;;4.50;70.70;;;;;;5062070;28;20214;-46
2022/03/21 04:55:32;;;;;;;10.47;8.40;;;4.50;71.60;;;;;;5065913;28;20226;-43
2022/03/21 04:57:59;;;;;;;16.73;8.60;;;4.40;71.00;;;;;;5061462;28;20862;-45
2022/03/21 05:00:27;;;;;;;12.73;7.47;;;4.40;71.20;;;;;;5055082;28;20221;-48
2022/03/21 05:02:54;;;;;;;10.50;7.80;;;4.40;71.40;;;;;;5062186;28;20198;-43
2022/03/21 05:05:22;;;;;;;11.17;7.53;;;4.40;71.50;;;;;;5048621;28;20234;-43
2022/03/21 05:07:52;;;;;;;10.37;8.23;;;4.30;72.40;;;;;;5061028;28;20206;-43
2022/03/21 05:10:21;;;;;;;11.10;8.23;;;4.30;71.70;;;;;;5062685;28;20573;-45
2022/03/21 05:12:48;;;;;;;12.23;7.73;;;4.30;71.90;;;;;;5064113;28;20202;-44
2022/03/21 05:15:15;;;;;;;12.03;7.83;;;4.30;72.10;;;;;;5053079;28;20910;-41
2022/03/21 05:17:43;;;;;;;10.77;7.60;;;4.20;72.30;;;;;;5063593;28;20209;-48
2022/03/21 05:20:14;;;;;;;13.00;7.90;;;4.20;72.50;;;;;;5057365;28;20285;-51
2022/03/21 05:22:41;;;;;;;10.67;7.50;;;4.20;72.40;;;;;;5050861;28;20737;-42
2022/03/21 05:36:08;;;;;;;11.17;7.37;;;4.10;73.40;;;;;;5050421;28;20289;-41
2022/03/21 05:38:36;;;;;;;9.93;8.07;;;4.10;73.80;;;;;;5049947;28;20229;-41
2022/03/21 05:41:03;;;;;;;12.10;7.83;;;4.00;74.00;;;;;;5055009;28;20187;-43
2022/03/21 05:43:32;;;;;;;12.27;8.27;;;4.10;74.30;;;;;;5053088;28;20194;-42
2022/03/21 05:46:00;;;;;;;12.20;8.50;;;4.00;74.50;;;;;;5062625;28;20214;-40
2022/03/21 05:51:14;;;;;;;11.37;7.63;;;4.00;75.00;;;;;;5061190;28;20213;-43
2022/03/21 05:53:42;;;;;;;12.87;8.10;;;4.00;75.10;;;;;;5051398;28;20233;-42
2022/03/21 05:56:09;;;;;;;12.67;7.93;;;4.00;75.20;;;;;;5061749;28;20206;-45
2022/03/21 05:58:36;;;;;;;10.93;7.67;;;4.00;75.20;;;;;;5064574;28;20217;-47
2022/03/21 06:01:03;;;;;;;13.10;7.93;;;4.00;75.30;;;;;;5052556;28;23451;-42
2022/03/21 06:03:32;;;;;;;11.20;8.23;;;4.00;75.30;;;;;;5054411;28;20282;-43
2022/03/21 06:06:00;;;;;;;10.87;7.63;;;4.00;75.40;;;;;;5051073;28;20248;-44
2022/03/21 06:08:27;;;;;;;10.83;8.37;;;4.10;75.40;;;;;;5046661;28;20629;-46
2022/03/21 06:11:03;;;;;;;10.00;7.73;;;4.10;75.60;;;;;;5058369;28;20554;-46
2022/03/21 06:13:32;;;;;;;10.37;7.80;;;4.10;75.70;;;;;;5061381;28;20203;-46
2022/03/21 06:16:01;;;;;;;12.97;8.30;;;4.10;75.70;;;;;;5056944;28;20274;-43
2022/03/21 06:18:28;;;;;;;14.83;8.47;;;4.10;75.70;;;;;;5049883;28;20198;-49
2022/03/21 06:20:56;;;;;;;10.90;8.13;;;4.10;75.70;;;;;;5059728;28;20202;-46
2022/03/21 06:23:23;;;;;;;11.37;8.10;;;4.10;75.60;;;;;;5050694;28;20287;-44
2022/03/21 06:25:51;;;;;;;11.63;7.80;;;4.10;75.80;;;;;;5051033;28;20201;-44
2022/03/21 06:28:18;;;;;;;15.07;8.20;;;4.20;76.00;;;;;;5063598;28;20572;-44
2022/03/21 06:30:45;;;;;;;12.87;8.27;;;4.20;75.80;;;;;;5058451;28;20198;-44
2022/03/21 06:33:12;;;;;;;10.97;8.07;;;4.20;76.70;;;;;;5058597;28;20234;-45
2022/03/21 06:35:39;;;;;;;11.27;8.13;;;4.20;75.80;;;;;;5054791;28;20218;-44
2022/03/21 06:38:10;;;;;;;10.83;7.30;;;4.20;76.00;;;;;;5045934;28;20207;-45
2022/03/21 06:40:37;;;;;;;11.50;8.20;;;4.20;76.00;;;;;;5051089;28;20220;-46
2022/03/21 06:43:04;;;;;;;12.40;8.20;;;4.30;76.10;;;;;;5056084;28;20198;-45
2022/03/21 06:45:31;;;;;;;9.77;7.83;;;4.30;76.40;;;;;;5046859;28;20223;-46
2022/03/21 06:47:58;;;;;;;12.13;8.30;;;4.30;76.50;;;;;;5059256;28;20209;-44
2022/03/21 06:50:26;;;;;;;10.67;8.10;;;4.40;76.60;;;;;;5056714;28;20195;-44
2022/03/21 06:52:54;;;;;;;10.83;7.53;;;4.40;76.20;;;;;;5046812;28;20917;-44
2022/03/21 06:55:27;;;;;;;10.97;7.37;;;4.50;76.40;;;;;;5042100;28;20215;-45
2022/03/21 06:57:55;;;;;;;13.17;8.20;;;4.50;76.10;;;;;;5050671;28;20194;-44
2022/03/21 07:00:22;;;;;;;11.83;8.03;;;4.50;76.30;;;;;;5056436;28;20215;-44
2022/03/21 07:02:49;;;;;;;11.00;8.03;;;4.60;76.40;;;;;;5058847;28;20872;-46
2022/03/21 07:05:15;;;;;;;13.63;8.60;;;4.70;76.20;;;;;;5056254;28;20211;-44
2022/03/21 07:07:43;;;;;;;11.13;8.13;;;4.70;75.90;;;;;;5044147;28;20199;-45
2022/03/21 07:10:10;;;;;;;11.43;8.70;;;4.80;76.00;;;;;;5039487;28;20207;-46
2022/03/21 07:12:38;;;;;;;10.67;8.13;;;4.90;76.00;;;;;;5051428;28;20643;-45
2022/03/21 07:15:07;;;;;;;12.73;7.57;;;4.90;75.90;;;;;;5053740;28;20306;-43
2022/03/21 07:17:33;;;;;;;11.43;7.93;;;5.00;75.80;;;;;;5056519;28;20201;-44
2022/03/21 07:20:00;;;;;;;11.83;8.43;;;5.10;75.40;;;;;;5051359;28;20187;-44
2022/03/21 07:22:27;;;;;;;12.00;8.50;;;5.20;75.00;;;;;;5038543;28;20218;-44
2022/03/21 07:24:54;;;;;;;10.67;8.07;;;5.30;74.70;;;;;;5040388;28;20703;-48
2022/03/21 07:27:21;;;;;;;10.07;8.17;;;5.30;74.50;;;;;;5043615;28;20733;-45
2022/03/21 07:29:49;;;;;;;11.27;8.23;;;5.40;74.60;;;;;;5050608;28;20206;-44
2022/03/21 07:32:17;;;;;;;12.90;9.67;;;5.40;73.90;;;;;;5057731;28;20609;-46
2022/03/21 07:34:43;;;;;;;11.70;8.10;;;5.50;73.80;;;;;;5060630;28;20234;-46
2022/03/21 07:37:12;;;;;;;12.90;8.63;;;5.50;73.20;;;;;;5057501;28;20202;-44
2022/03/21 07:39:39;;;;;;;10.60;8.00;;;5.60;73.30;;;;;;5060612;28;20237;-44
2022/03/21 07:42:07;;;;;;;10.63;8.57;;;5.70;73.00;;;;;;5047314;28;20218;-43
2022/03/21 07:47:23;;;;;;;15.00;8.97;;;5.90;72.30;;;;;;5053223;28;20209;-49
2022/03/21 07:49:52;;;;;;;12.23;8.83;;;5.90;72.30;;;;;;5059651;28;20562;-45
2022/03/21 07:52:21;;;;;;;10.30;7.77;;;6.00;71.90;;;;;;5058711;28;20213;-44
2022/03/21 07:54:53;;;;;;;12.47;8.60;;;6.10;71.80;;;;;;5049275;28;20245;-44
2022/03/21 07:57:21;;;;;;;11.93;8.47;;;6.20;72.00;;;;;;5049223;28;20202;-46
2022/03/21 07:59:47;;;;;;;13.50;8.13;;;6.20;71.50;;;;;;5043191;28;20336;-48
2022/03/21 08:02:14;;;;;;;8.90;7.80;;;6.30;70.80;;;;;;5062603;28;20234;-45
2022/03/21 08:04:42;;;;;;;10.87;8.10;;;6.40;70.30;;;;;;5054944;28;20234;-46
2022/03/21 08:07:09;;;;;;;12.70;8.20;;;6.50;70.30;;;;;;5050373;28;20269;-46
2022/03/21 08:09:36;;;;;;;11.37;8.07;;;6.60;70.50;;;;;;5042176;28;20278;-47
2022/03/21 08:12:03;;;;;;;10.57;7.40;;;6.70;70.00;;;;;;5053900;28;20198;-44
2022/03/21 08:14:30;;;;;;;11.70;7.87;;;6.80;69.90;;;;;;5033782;28;20222;-44
2022/03/21 08:16:56;;;;;;;12.93;9.50;;;6.80;69.50;;;;;;5040145;28;20210;-44
2022/03/21 08:19:24;;;;;;;11.53;9.10;;;7.00;69.50;;;;;;5048524;28;20190;-46
2022/03/21 08:21:53;;;;;;;14.50;8.87;;;7.10;69.40;;;;;;5053795;28;20610;-45
2022/03/21 08:24:21;;;;;;;10.87;7.93;;;7.30;69.30;;;;;;5050324;28;20207;-45
2022/03/21 08:26:48;;;;;;;12.27;8.60;;;7.30;69.00;;;;;;5050908;28;20206;-45
2022/03/21 08:29:15;;;;;;;12.87;8.43;;;7.30;67.90;;;;;;5040688;28;20582;-51
2022/03/21 08:31:42;;;;;;;9.80;8.07;;;7.40;67.90;;;;;;5050490;28;20199;-45
2022/03/21 08:34:09;;;;;;;11.00;8.43;;;7.40;68.10;;;;;;5046304;28;20229;-45
2022/03/21 08:36:36;;;;;;;16.20;8.80;;;7.50;66.80;;;;;;5052723;28;20283;-43
2022/03/21 08:39:04;;;;;;;11.63;8.30;;;7.50;67.50;;;;;;5047708;28;20195;-47
2022/03/21 08:41:31;;;;;;;13.40;8.70;;;7.70;66.90;;;;;;5050985;28;20195;-45
2022/03/21 08:43:58;;;;;;;12.63;8.60;;;7.80;66.30;;;;;;5040463;28;20218;-42
2022/03/21 08:46:26;;;;;;;12.20;7.90;;;7.90;66.20;;;;;;5044450;28;20275;-45
2022/03/21 08:51:38;;;;;;;12.00;8.70;;;8.00;65.80;;;;;;5057161;28;20191;-43
2022/03/21 08:54:07;;;;;;;10.13;8.33;;;8.10;64.90;;;;;;5048534;28;20250;-49
2022/03/21 08:56:34;;;;;;;11.43;8.27;;;8.20;65.00;;;;;;5044122;28;20204;-44
2022/03/21 08:59:01;;;;;;;10.53;8.70;;;8.20;64.90;;;;;;5044224;28;20209;-45
2022/03/21 09:01:29;;;;;;;12.37;8.93;;;8.30;64.20;;;;;;5053353;28;20214;-44
2022/03/21 09:03:56;;;;;;;9.27;8.20;;;8.40;65.10;;;;;;5052332;28;20219;-44
2022/03/21 09:06:23;;;;;;;15.43;9.40;;;8.50;64.40;;;;;;5052389;28;20209;-43
2022/03/21 09:08:50;;;;;;;11.43;8.17;;;8.60;63.20;;;;;;5060380;28;20306;-47
2022/03/21 09:11:19;;;;;;;12.50;9.07;;;8.60;63.20;;;;;;5049408;28;20212;-45
2022/03/21 09:13:45;;;;;;;15.13;8.70;;;8.70;63.60;;;;;;5057797;28;20215;-44
2022/03/21 09:16:12;;;;;;;9.37;7.77;;;8.80;63.20;;;;;;5029154;28;20942;-45
2022/03/21 09:18:39;;;;;;;10.13;8.37;;;8.80;62.50;;;;;;5055129;28;20203;-43
2022/03/21 09:21:06;;;;;;;11.47;8.80;;;8.90;63.00;;;;;;5049912;28;20203;-44
2022/03/21 09:23:34;;;;;;;12.57;9.00;;;9.00;62.90;;;;;;5057553;28;20197;-46
2022/03/21 09:26:01;;;;;;;11.83;8.40;;;9.00;62.30;;;;;;5058846;28;20202;-46
2022/03/21 09:28:30;;;;;;;11.87;8.77;;;9.10;62.80;;;;;;5061531;28;20211;-46
2022/03/21 09:30:57;;;;;;;15.00;9.40;;;9.20;61.60;;;;;;5044295;28;20211;-44
2022/03/21 09:33:24;;;;;;;11.53;8.47;;;9.30;62.60;;;;;;5043592;28;20199;-43
2022/03/21 09:35:50;;;;;;;10.67;8.77;;;9.30;61.40;;;;;;5059302;28;20245;-45
2022/03/21 09:38:17;;;;;;;10.97;9.10;;;9.40;61.10;;;;;;5055034;28;20195;-45
2022/03/21 09:40:45;;;;;;;10.80;9.20;;;9.50;61.00;;;;;;5059125;28;20198;-45
2022/03/21 09:43:13;;;;;;;11.03;8.43;;;9.60;60.80;;;;;;5060837;28;20955;-44
2022/03/21 09:45:42;;;;;;;12.90;8.80;;;9.60;60.10;;;;;;5046838;28;20309;-44
2022/03/21 09:48:12;;;;;;;11.30;8.90;;;9.60;59.80;;;;;;5052666;28;20203;-49
2022/03/21 09:50:42;;;;;;;11.40;8.77;;;9.70;59.70;;;;;;5057426;28;20207;-48
2022/03/21 09:53:11;;;;;;;10.37;8.90;;;9.80;60.90;;;;;;5059154;28;20202;-45
2022/03/21 09:55:38;;;;;;;9.73;8.43;;;9.80;59.60;;;;;;5064560;28;20206;-46
2022/03/21 09:58:05;;;;;;;13.63;9.23;;;9.90;60.30;;;;;;5060129;28;20580;-43
2022/03/21 10:00:32;;;;;;;12.53;8.10;;;10.00;59.90;;;;;;5037949;28;20219;-47
2022/03/21 10:03:00;;;;;;;14.17;9.20;;;10.10;90.90;;;;;;5043017;28;20202;-46
2022/03/21 10:05:35;;;;;;;10.70;8.10;;;10.20;81.20;;;;;;5052036;28;20293;-43
2022/03/21 10:08:12;;;;;;;10.80;8.97;;;10.30;75.30;;;;;;5055812;28;20210;-45
2022/03/21 10:10:40;;;;;;;10.83;8.90;;;10.20;76.20;;;;;;5060522;28;20222;-44
2022/03/21 10:13:09;;;;;;;12.93;9.53;;;10.40;86.80;;;;;;5055912;28;20205;-46
2022/03/21 10:15:36;;;;;;;16.43;10.20;;;;;;;;;;5063274;28;20222;-42
2022/03/21 10:18:10;;;;;;;12.67;9.80;;;10.50;59.10;;;;;;5042824;28;20203;-42
2022/03/21 10:20:38;;;;;;;9.90;7.57;;;10.70;59.60;;;;;;5054747;28;20227;-45
2022/03/21 10:23:19;;;;;;;12.70;8.60;;;10.70;58.70;;;;;;5046400;28;20298;-44
2022/03/21 10:25:46;;;;;;;11.60;9.30;;;10.80;59.50;;;;;;5053016;28;20190;-42
2022/03/21 10:28:33;;;;;;;12.33;9.10;;;10.90;59.00;;;;;;5050318;28;20206;-47
2022/03/21 10:31:00;;;;;;;12.77;8.57;;;11.00;59.20;;;;;;5045240;28;20671;-47
2022/03/21 10:33:28;;;;;;;11.53;8.60;;;11.10;57.80;;;;;;5050625;28;20310;-43
2022/03/21 10:35:55;;;;;;;11.07;8.77;;;11.00;57.00;;;;;;5051454;28;20222;-44
2022/03/21 10:38:32;;;;;;;10.70;9.27;;;11.10;57.90;;;;;;5058196;28;20214;-44
2022/03/21 10:41:06;;;;;;;10.60;8.93;;;11.20;57.30;;;;;;5052729;28;20264;-45
2022/03/21 10:43:33;;;;;;;10.27;8.93;;;11.30;57.30;;;;;;5054271;28;20563;-48
2022/03/21 10:46:01;;;;;;;13.03;9.30;;;11.80;85.60;;;;;;5055228;28;20199;-44
2022/03/21 10:48:30;;;;;;;10.40;8.23;;;11.40;57.40;;;;;;5047248;28;20206;-43
2022/03/21 10:50:59;;;;;;;13.40;9.40;;;11.50;56.30;;;;;;5046577;28;20213;-44
2022/03/21 10:53:27;;;;;;;11.47;9.07;;;11.50;56.70;;;;;;5061568;28;20222;-44
2022/03/21 10:56:02;;;;;;;12.37;9.53;;;11.60;73.80;;;;;;5059887;28;20218;-42
2022/03/21 10:58:35;;;;;;;11.60;9.00;;;11.80;69.40;;;;;;5056423;28;20675;-45
2022/03/21 11:01:15;;;;;;;12.57;9.00;;;11.70;55.80;;;;;;5055242;28;20664;-53
2022/03/21 11:03:46;;;;;;;11.57;9.27;;;11.70;55.60;;;;;;5048093;28;20222;-43
2022/03/21 11:06:13;;;;;;;11.13;9.07;;;11.70;56.10;;;;;;5046430;28;20201;-43
2022/03/21 11:08:41;;;;;;;10.20;8.90;;;11.80;55.20;;;;;;5060365;28;20744;-46
2022/03/21 11:11:09;;;;;;;10.00;8.93;;;11.80;55.80;;;;;;5057133;28;20213;-43
2022/03/21 11:13:37;;;;;;;11.20;9.43;;;11.80;54.90;;;;;;5058021;28;20942;-43
2022/03/21 11:16:05;;;;;;;14.37;9.73;;;11.90;55.50;;;;;;5057510;28;20705;-43
2022/03/21 11:18:32;;;;;;;13.77;9.90;;;12.00;55.60;;;;;;5051902;28;20689;-44
2022/03/21 11:21:01;;;;;;;12.33;9.10;;;12.10;55.20;;;;;;5052658;28;20203;-43
2022/03/21 11:23:30;;;;;;;10.23;8.80;;;12.10;55.70;;;;;;5058742;28;20206;-44
2022/03/21 11:26:04;;;;;;;10.70;8.70;;;12.20;56.20;;;;;;5056435;28;20252;-44
2022/03/21 11:28:47;;;;;;;11.90;9.73;;;12.20;55.10;;;;;;5057270;28;20226;-44
2022/03/21 11:31:39;;;;;;;12.90;9.23;;;12.20;54.70;;;;;;5058835;28;20247;-45
2022/03/21 11:34:21;;;;;;;10.57;9.40;;;12.30;54.40;;;;;;5040316;28;20642;-43
2022/03/21 11:36:55;;;;;;;11.77;9.10;;;12.30;54.80;;;;;;5040494;28;20581;-43
2022/03/21 11:39:22;;;;;;;11.77;8.93;;;12.40;54.90;;;;;;5050578;28;20187;-46
2022/03/21 11:42:00;;;;;;;11.13;9.30;;;12.50;54.80;;;;;;5059961;28;20256;-43
2022/03/21 11:44:27;;;;;;;10.07;8.97;;;12.60;54.80;;;;;;5058943;28;20217;-47
2022/03/21 11:46:54;;;;;;;11.20;9.20;;;12.70;54.70;;;;;;5059437;28;20279;-44
2022/03/21 11:49:44;;;;;;;12.47;9.23;;;12.70;54.20;;;;;;5061891;28;20191;-44
2022/03/21 11:52:13;;;;;;;10.93;9.13;;;12.70;53.80;;;;;;5034668;28;20450;-44
2022/03/21 11:54:41;;;;;;;13.87;8.77;;;12.80;55.10;;;;;;5060468;28;20289;-45
2022/03/21 11:57:09;;;;;;;12.70;9.40;;;12.90;54.70;;;;;;5063684;28;20217;-46
2022/03/21 11:59:59;;;;;;;11.60;9.20;;;12.90;54.10;;;;;;5060786;28;20207;-46
2022/03/21 12:02:55;;;;;;;12.47;9.80;;;12.90;53.70;;;;;;5058670;28;20191;-44
2022/03/21 12:05:50;;;;;;;12.03;9.17;;;13.00;53.60;;;;;;5051900;28;20215;-46
2022/03/21 12:08:48;;;;;;;9.77;8.50;;;13.00;53.00;;;;;;5042465;28;20207;-44
2022/03/21 12:12:01;;;;;;;10.60;9.50;;;13.00;52.90;;;;;;5061922;28;20206;-45
2022/03/21 12:14:44;;;;;;;11.37;9.73;;;13.00;52.70;;;;;;5060744;28;20219;-45
2022/03/21 12:17:38;;;;;;;10.53;8.90;;;13.10;54.30;;;;;;5062124;28;20222;-43
2022/03/21 12:20:18;;;;;;;13.23;9.67;;;13.20;53.20;;;;;;5051061;28;20198;-46
2022/03/21 12:22:49;;;;;;;12.37;9.67;;;13.30;53.20;;;;;;5039087;28;23336;-48
2022/03/21 12:25:23;;;;;;;10.50;9.40;;;13.30;53.30;;;;;;5062226;28;20297;-44
2022/03/21 12:27:52;;;;;;;11.10;9.63;;;13.40;52.80;;;;;;5059124;28;20274;-45
2022/03/21 12:30:38;;;;;;;10.17;9.00;;;13.40;53.70;;;;;;5061715;28;20234;-44
2022/03/21 12:33:29;;;;;;;10.97;9.10;;;13.50;52.90;;;;;;5056175;28;20194;-44
2022/03/21 12:36:05;;;;;;;13.33;9.57;;;13.60;54.50;;;;;;5057000;28;20215;-43
2022/03/21 12:38:37;;;;;;;11.57;9.73;;;13.70;52.80;;;;;;5048749;28;20217;-45
2022/03/21 12:41:08;;;;;;;13.07;10.17;;;13.70;52.80;;;;;;5039572;28;20218;-46
2022/03/21 12:43:55;;;;;;;10.33;8.87;;;13.70;53.70;;;;;;5043326;28;20284;-43
2022/03/21 12:46:23;;;;;;;11.30;9.40;;;13.80;52.80;;;;;;5039179;28;20237;-46
2022/03/21 12:48:54;;;;;;;12.73;9.87;;;13.70;52.80;;;;;;5047275;28;20657;-47
2022/03/21 12:51:31;;;;;;;12.23;9.33;;;13.80;53.90;;;;;;5048649;28;20636;-44
2022/03/21 12:54:01;;;;;;;14.10;10.13;;;13.80;52.60;;;;;;5038949;28;20254;-45
2022/03/21 12:56:31;;;;;;;13.00;9.80;;;13.80;53.40;;;;;;5038433;28;20286;-45
2022/03/21 12:59:01;;;;;;;11.03;9.83;;;13.90;52.90;;;;;;5064052;28;20207;-43
2022/03/21 13:01:29;;;;;;;11.60;9.77;;;13.90;53.50;;;;;;5050340;28;20929;-44
2022/03/21 13:10:32;;;;;;;13.73;10.23;;;13.90;53.50;;;;;;5055538;28;20615;-43
2022/03/21 13:12:35;;;;;;;10.03;8.93;;;14.10;53.20;;;;;;5048190;28;20892;-43
2022/03/21 13:15:05;;;;;;;13.63;9.90;;;14.00;52.70;;;;;;5061353;28;20289;-46
2022/03/21 13:17:47;;;;;;;11.13;9.50;;;14.10;52.80;;;;;;5053725;28;20206;-43
2022/03/21 13:20:15;;;;;;;10.67;9.23;;;14.10;52.70;;;;;;5053333;28;21114;-49
2022/03/21 13:22:42;;;;;;;11.30;9.60;;;14.20;52.60;;;;;;5058880;28;20206;-47
2022/03/21 13:25:22;;;;;;;12.17;9.83;;;14.30;52.60;;;;;;5044310;28;20218;-43